NWS Home NWS Lubbock West Texas Mesonet                      Daily Summary For 10/26/2020

Latest   N   C   S   Daily Sum   3hrΔ   24hrΔ   Soil Data 
Site Map   24hr Precip   72hr Precip   Google Plot


Station Time of Last Max Temp Min Temp Max/Min Dew Pt. Max/Min RH 10m Avg Wind 2m Avg Wind Peak Gust @ 33ft (mph) Potential Evapotranspiration
mm/day or in/day
Rain Sum Solar Rad
MJ/m^2
% Clear Day Red Flag
Abernathy 5ENE 11:59 PM 40 37 22 /16 91 / 15 5.6  (NE) 9.3 29.6 mph 25° @ 1242 AM 0.5 or 0.02 0.00 3 22.3 0
Adrian 6WSW 11:59 PM 40 37 22 /16 91 / 15 7.5  (NE) 12.5 12.9 mph 43° @ 0103 AM 0.5 or 0.02 0.00 3.5 26.5 0
Aiken 3WSW 11:59 PM 40 37 22 /16 91 / 15 6.2  (NE) 5.8 27.2 mph 19° @ 0109 AM 0.5 or 0.02 0.00 3.5 26.3 0
Amarillo 15NNW 11:59 PM 40 37 22 /16 91 / 15 10.1  (NE) 11.8 19 mph 16° @ 0908 AM 0.5 or 0.02 0.00 2.9 22.8 0
Amarillo 7SSE 11:59 PM 40 37 22 /16 91 / 15 9  (N) 12.3 22.1 mph 27° @ 1225 AM 0.5 or 0.02 0.00 4.3 33 0
Amarillo 9NNE 11:59 PM 40 37 22 /16 91 / 15 9.1  (N) 7.5 18.6 mph 31° @ 1215 AM 0.5 or 0.02 0.00 2.7 20.7 0
Amherst 1NE 11:55 PM 40 37 22 /16 91 / 15 7  (NE) 10.1 31 mph 35° @ 1210 AM 0.5 or 0.02 0.00 3.3 24.5 0
Andrews 2E 11:55 PM 40 37 22 /16 91 / 15 10.3  (NE) 7.1 30.7 mph 29° @ 1255 AM 0.8 or 0.03 0.05 0.7 24.3 0
Anton 6SSW 11:55 PM 40 37 22 /16 91 / 15 6.2  (NE) 15.6 28.2 mph 24° @ 1235 AM 0.5 or 0.02 0.00 3.3 24.3 0
Aspermont 3NE 11:55 PM 40 37 22 /16 91 / 15 10.1  (N) 7.5 30.6 mph 8° @ 0140 AM 0.5 or 0.02 0.29 2.3 16.6 0
Big Bend NP - Castolon 11:59 PM 40 37 22 /16 91 / 15 12.5  (SE) 10 32 mph 244° @ 0259 AM 4.8 or 0.19 0.00 19.6 125.1 1
Big Bend NP - Persimmon Gap 11:59 PM 40 37 22 /16 91 / 15 22.5  (NE) 18.7 42.1 mph 35° @ 0620 PM 4.1 or 0.16 0.00 17.3 111.5 0
Big Lake 1WNW 11:59 PM 40 37 22 /16 91 / 15 14.7  (NE) 11.7 30.5 mph 5° @ 0534 AM 1.3 or 0.05 0.02 4.1 27.8 0
Bootleg 11WNW 11:59 PM 40 37 22 /16 91 / 15 10.2  (N) 11.3 21 mph 27° @ 1234 AM 0.5 or 0.02 0.00 3 22.6 0
Borger 7E 11:59 PM 40 37 22 /16 91 / 15 4.4  (N) 0.5 7.7 mph 10° @ 1123 PM 0.5 or 0.02 0.00 4 31.2 0
Boys Ranch 1WSW 11:59 PM 40 37 22 /16 91 / 15 12.8  (NE) 10.1 27 mph 28° @ 1107 AM 0.8 or 0.03 0.00 2.5 19.8 0
Brownfield 2S 11:59 PM 40 37 22 /16 91 / 15 8  (NE) 11.7 34 mph 30° @ 0220 AM 0.5 or 0.02 0.00 3.2 23.1 0
Canadian 6E 11:59 PM 40 37 22 /16 91 / 15 14.4  (N) 12.3 26.5 mph 5° @ 0628 AM 0.5 or 0.02 0.00 3 23.9 0
Caprock Canyons State Park 11:59 PM 40 37 22 /16 91 / 15 7.1  (N) 6.1 24.6 mph 6° @ 0142 AM 0.5 or 0.02 0.00 3.3 24.5 0
Childress 2NNE 11:55 PM 40 37 22 /16 91 / 15 5.7  (N) 6.5 32 mph 4° @ 1235 AM 0.5 or 0.02 0.04 2.6 20.1 0
Clarendon 2WSW 11:55 PM 40 37 22 /16 91 / 15 3.8  (NE) 1.8 6.3 mph 27° @ 0645 AM 0.5 or 0.02 0.00 2.9 22.3 0
Claude 12SW 11:59 PM 40 37 22 /16 91 / 15 7.6  (N) 12 20.8 mph 0° @ 1205 AM 0.3 or 0.01 0.00 4.2 32 0
Clyde 2WNW 11:59 PM 40 37 22 /16 91 / 15 11.7  (N) 9.7 26.3 mph 360° @ 0756 AM 1 or 0.04 0.15 2.4 17 0
Colorado City 5NW 11:59 PM 40 37 22 /16 91 / 15 12.1  (NE) 10 32.1 mph 32° @ 1256 AM 0.8 or 0.03 0.17 2.9 20.5 0
Comanche Springs 11:59 PM 40 37 22 /16 91 / 15 8.8  (N) 7.3 32.9 mph 7° @ 1243 AM 0.5 or 0.02 0.72 2.4 18.1 0
Coyanosa 2N 11:59 PM 40 37 22 /16 91 / 15 11.5  (NE) 8.6 23 mph 25° @ 0451 AM 1.3 or 0.05 0.01 4.6 31.3 0
Crane 1NNW 11:59 PM 40 37 22 /16 91 / 15 14.2  (NE) 12.1 34.6 mph 61° @ 0121 AM 1.3 or 0.05 0.02 4.7 32.1 0
Crowell 1E 11:59 PM 40 37 22 /16 91 / 15 11.1  (N) 8.8 32.7 mph 12° @ 0348 AM 0.5 or 0.02 1.39 2.2 16.7 0
Dell City 11:59 PM 40 37 22 /16 91 / 15 10.4  (NW) 8.3 30.3 mph 8° @ 0348 AM 2.3 or 0.09 0.00 17.5 120.8 0
Denver City 7WNW 11:55 PM 40 37 22 /16 91 / 15 12.4  (NE) 11.8 28.8 mph 24° @ 0250 AM 0.8 or 0.03 0.00 3.9 27.6 0
Dimmitt 2NE 11:55 PM 40 37 22 /16 91 / 15 5.4  (NE) 9.2 18.7 mph 29° @ 1210 AM 0.5 or 0.02 0.00 3.7 28.1 0
Doole 3WNW 11:59 PM 40 37 22 /16 91 / 15 11.9  (N) 8.7 22.7 mph 355° @ 0918 AM 1.5 or 0.06 0.06 3.5 24.1 0
Dora NM 2SW 11:55 PM 40 37 22 /16 91 / 15 4.3  (NE) 8.8 24 mph 40° @ 1210 AM 0.5 or 0.02 0.00 3.4 25 0
Dozier 3W 11:59 PM 40 37 22 /16 91 / 15 7.6  (N) 10.5 21.9 mph 11° @ 1204 AM 0.5 or 0.02 0.00 3 23.6 0
Earth 9WSW 11:59 PM 40 37 22 /16 91 / 15 5.1  (NE) 3.2 28.2 mph 36° @ 1213 AM 0.5 or 0.02 0.00 2.9 21.8 0
Endee NM 2SW 11:59 PM 40 37 22 /16 91 / 15 15.8  (NE) 12.3 27.8 mph 37° @ 0809 AM 0.5 or 0.02 0.00 3 23.2 0
Estelline 3SSE 11:59 PM 40 37 22 /16 91 / 15 6.8  (N) 7.4 28.9 mph 12° @ 1242 AM 0.5 or 0.02 0.02 3 22.8 0
Floydada 2NNE 11:55 PM 40 37 22 /16 91 / 15 5.7  (N) 8.5 26.7 mph 27° @ 1215 AM 0.5 or 0.02 0.00 2.9 21.6 0
Fluvanna 3WNW 11:55 PM 40 37 22 /16 91 / 15 11.3  (NE) 9 38.4 mph 14° @ 0240 AM 0.8 or 0.03 0.00 2.8 20.3 0
Fort Chadbourne 11:59 PM 40 37 22 /16 91 / 15 12.2  (NE) 6.6 28.1 mph 15° @ 0326 PM 1 or 0.04 0.02 1.9 13.3 0
Fort Lancaster 11:59 PM 40 37 22 /16 91 / 15 10.8  (NE) 6.8 31.5 mph 9° @ 0953 AM 2.5 or 0.1 0.02 4.8 32.5 0
Fort Lewis CO 11:59 PM 40 37 22 /16 91 / 15 5.8  (W) 3 21.9 mph 252° @ 0643 AM 0.5 or 0.02 0.04 6.1 49.3 0
Fort McKavett 11:59 PM 40 37 22 /16 91 / 15 11.1  (NE) 8.1 23 mph 6° @ 0529 PM 1.5 or 0.06 0.01 3.2 21.8 0
Friona 2NE 11:55 PM 40 37 22 /16 91 / 15 6.4  (NE) 13.6 17 mph 30° @ 1205 AM 0.5 or 0.02 0.00 4.1 30.7 0
Fritch 1WNW 11:59 PM 40 37 22 /16 91 / 15 13.5  (NE) 12.6 28.1 mph 39° @ 0727 AM 0.5 or 0.02 0.00 2.8 21.9 0
Gail 2ESE 11:55 PM 40 37 22 /16 91 / 15 11.3  (NE) 10.7 32.4 mph 22° @ 0225 AM 0.8 or 0.03 0.04 0.6 20.8 0
Goodlett 3W 11:55 PM 40 37 22 /16 91 / 15 9  (N) 7.5 35.4 mph 7° @ 0425 AM 0.5 or 0.02 0.49 2.3 17.6 0
Goodnight 11:59 PM 40 37 22 /16 91 / 15 7.7  (N) 12.7 16.5 mph 9° @ 1241 AM 0.5 or 0.02 0.00 2.9 22.7 0
Graham 5SSW 11:55 PM 40 37 22 /16 91 / 15 8.2  (NE) 10 35.4 mph 18° @ 0215 AM 0.5 or 0.02 0.01 0.6 20.4 0
Guadalupe Mtns Natl Park 11:59 PM 40 37 22 /16 91 / 15 9  (E) 5 20.5 mph 44° @ 0738 AM 1.3 or 0.05 0.01 6.1 41 0
Guthrie 10WSW 11:55 PM 40 37 22 /16 91 / 15 11.8  (N) 9.9 34 mph 10° @ 0130 AM 0.5 or 0.02 0.30 2.8 20.8 0
Hackberry 2SSE 11:59 PM 40 37 22 /16 91 / 15 9.5  (N) 7.6 31 mph 12° @ 0200 AM 0.5 or 0.02 0.60 2.5 18.8 0
Happy 1E 11:59 PM 40 37 22 /16 91 / 15 9.5  (NE) 12.5 26.5 mph 29° @ 1202 AM 0.5 or 0.02 0.00 4.1 31.4 0
Hart 3N 11:55 PM 40 37 22 /16 91 / 15 8.1  (N) 12 29.1 mph 23° @ 1230 AM 0.5 or 0.02 0.00 3.7 27.5 0
Haskell 1NW 11:55 PM 40 37 22 /16 91 / 15 12.8  (N) 11.2 36 mph 6° @ 0450 AM 0.8 or 0.03 0.34 2.2 16.1 0
Hefner 1SW 11:59 PM 40 37 22 /16 91 / 15 11.3  (N) 11.2 36.5 mph 1° @ 0723 AM 0.8 or 0.03 0.81 2.2 15.9 0
Hereford 2NW 11:55 PM 40 37 22 /16 91 / 15 9.2  (NE) 9.5 23.8 mph 34° @ 1205 AM 0.5 or 0.02 0.00 3.8 28.9 0
Hobbs NM 5NW 11:59 PM 40 37 22 /16 91 / 15 7.8  (NE) 10.8 31.1 mph 28° @ 0439 AM 0.5 or 0.02 0.00 4.1 28.7 0
Jayton 1SSE 11:55 PM 40 37 22 /16 91 / 15 9.4  (N) 8.9 31.8 mph 16° @ 0155 AM 0.5 or 0.02 0.10 2.6 18.7 0
Junction 1SSW 11:59 PM 40 37 22 /16 91 / 15 9.5  (SE) 7.2 23.7 mph 24° @ 0845 PM 2.3 or 0.09 0.00 3 20.4 0
Kent 9E 11:59 PM 40 37 22 /16 91 / 15 9.7  (NE) 7.4 21.9 mph 45° @ 0726 PM 1.3 or 0.05 0.07 3.6 23.9 0
Knox City 3NW 11:59 PM 40 37 22 /16 91 / 15 10.8  (N) 6.3 34 mph 13° @ 0353 AM 0.8 or 0.03 0.93 2.4 17.9 0
Lake Alan Henry 1NW 11:59 PM 40 37 22 /16 91 / 15 9.2  (NE) 8.4 30.7 mph 34° @ 0236 AM 0.5 or 0.02 0.06 2.5 18 0
Lake McClellan 2NW 11:59 PM 40 37 22 /16 91 / 15 4  (N) 2.4 5.9 mph 9° @ 1126 AM 0.5 or 0.02 0.00 3.3 25.9 0
Lamesa 2SE 11:55 PM 40 37 22 /16 91 / 15 8.8  (NE) 9.6 32.4 mph 22° @ 0215 AM 0.8 or 0.03 0.03 3.4 24.2 0
Lesley 2S 11:59 PM 40 37 22 /16 91 / 15 14.3  (N) 9.7 29 mph 360° @ 0538 AM 0.5 or 0.02 0.01 3.3 25.1 0
Levelland 4S 11:59 PM 40 37 22 /16 91 / 15 6.5  (NE) 10.7 32.9 mph 35° @ 1208 AM 0.5 or 0.02 0.00 3.6 25.8 0
Lomax 1SSE 11:59 PM 40 37 22 /16 91 / 15 16.3  (NE) 13 33.5 mph 21° @ 0340 AM 1 or 0.04 0.05 3.3 23.2 0
Lubbock 3WNW TTU 11:55 PM 40 37 22 /16 91 / 15 7.4  (NE) 7.8 27.1 mph 31° @ 1225 AM 0.5 or 0.02 0.02 2.8 20.4 0
McAdoo 3NNW 11:59 PM 40 37 22 /16 91 / 15 5.3  (N) 3.4 35.1 mph 28° @ 1255 AM 0.5 or 0.02 0.01 4 29.5 0
McCamey 1SSW 11:59 PM 40 37 22 /16 91 / 15 12.5  (NE) 10.7 33 mph 49° @ 1231 AM 1.3 or 0.05 0.00 4.4 29.6 0
McLean 1E 11:55 PM 40 37 22 /16 91 / 15 3.5  (N) 1.2 6.6 mph 358° @ 0500 AM 0.3 or 0.01 0.00 3.2 25.1 0
Memphis 1NE 11:55 PM 40 37 22 /16 91 / 15 9.4  (N) 13.2 30.8 mph 5° @ 1215 AM 0.5 or 0.02 0.00 0.5 20.5 0
Menard 2NW 11:59 PM 40 37 22 /16 91 / 15 11.5  (N) 8.9 24.5 mph 8° @ 0800 AM 1.5 or 0.06 0.01 3.2 21.3 0
Mertzon 3NNE 11:59 PM 40 37 22 /16 91 / 15 13.1  (NE) 9.8 25.1 mph 2° @ 0830 AM 1 or 0.04 0.08 3.2 21.6 0
Morton 1ENE 11:55 PM 40 37 22 /16 91 / 15 6.2  (NE) 10.5 30.2 mph 33° @ 1205 AM 0.5 or 0.02 0.00 3.3 24.4 0
Muleshoe 2SSW 11:55 PM 40 37 22 /16 91 / 15 6.8  (NE) 10.9 24.3 mph 32° @ 1205 AM 0.5 or 0.02 0.00 3.6 26.8 0
New Home 11:59 PM 40 37 22 /16 91 / 15 8  (NE) 10.2 30.2 mph 26° @ 0140 AM 0.5 or 0.02 0.00 3.3 24.1 0
Northfield 1S 11:55 PM 40 37 22 /16 91 / 15 5.5  (N) 7.6 30.5 mph 17° @ 1240 AM 0.5 or 0.02 0.01 3.1 23.6 0
O'Donnell 1N 11:55 PM 40 37 22 /16 91 / 15 7.7  (NE) 11 31.4 mph 19° @ 0200 AM 0.5 or 0.02 0.02 2.9 21 0
Odell 4ENE 11:59 PM 40 37 22 /16 91 / 15 10.5  (N) 8.3 34.3 mph 15° @ 0259 AM 0.5 or 0.02 0.81 1.9 14.1 0
Olton 6S 11:55 PM 40 37 22 /16 91 / 15 6.3  (NE) 13.4 27.5 mph 25° @ 1215 AM 0.5 or 0.02 0.00 3.4 25.3 0
Paducah 10SW 11:55 PM 40 37 22 /16 91 / 15 10.8  (N) 7.3 33.6 mph 10° @ 0140 AM 0.5 or 0.02 0.23 2.5 18.4 0
Palo Duro 4E (JA Ranch) 11:59 PM 40 37 22 /16 91 / 15 4.9  (N) 8.4 14.9 mph 13° @ 0108 AM 0.5 or 0.02 0.00 3.3 25 0
Palo Duro Canyon SP Floor 11:59 PM 40 37 22 /16 91 / 15 9.1  (N) 5 28.7 mph 358° @ 1139 PM 0.5 or 0.02 0.00 3.7 28.2 0
Palo Duro Canyon State Park Rim 11:59 PM 40 37 22 /16 91 / 15 11.1  (N) 7 28.7 mph 20° @ 1237 AM 0.5 or 0.02 0.00 2.9 22.6 0
Palo Duro Reservoir 1NW 11:59 PM 40 37 22 /16 91 / 15 5  (N) 12.2 9 mph 11° @ 1208 AM 0.5 or 0.02 0.00 3.5 28.5 0
Pampa 2E 11:55 PM 40 37 22 /16 91 / 15 5.6  (N) 12.7 11.6 mph 352° @ 0400 PM 0.5 or 0.02 0.00 4 31.2 0
Panhandle 1SSW 11:59 PM 40 37 22 /16 91 / 15 8.5  (N) 9.5 20.2 mph 9° @ 1219 AM 0.5 or 0.02 0.00 4.1 31.5 0
Plains 3N 11:55 PM 40 37 22 /16 91 / 15 9.8  (NE) 11.6 27.6 mph 30° @ 0150 AM 0.5 or 0.02 0.00 3.7 26.9 0
Plainview 1S 11:59 PM 40 37 22 /16 91 / 15 7.6  (NE) 7.3 27.4 mph 35° @ 0101 AM 0.5 or 0.02 0.00 3.5 26.3 0
Post 1NE 11:55 PM 40 37 22 /16 91 / 15 9.6  (NE) 9.3 29.3 mph 24° @ 0140 AM 0.5 or 0.02 0.04 0.6 20.5 0
Ralls 1SE 11:55 PM 40 37 22 /16 91 / 15 8.9  (N) 9.6 33 mph 21° @ 0100 AM 0.5 or 0.02 0.00 0.8 28 0
Reese Center 11:59 PM 40 37 22 /16 91 / 15 6.4  (NE) 8.9 35.1 mph 34° @ 1219 AM 0.5 or 0.02 0.00 3.1 22.8 0
Roaring Springs 3N 11:55 PM 40 37 22 /16 91 / 15 8.9  (N) 3.4 32.8 mph 14° @ 0115 AM 0.5 or 0.02 0.02 0.6 23.1 0
Romero 11SSW 11:59 PM 40 37 22 /16 91 / 15 17.6  (NE) 13.5 29.7 mph 28° @ 0759 AM 0.8 or 0.03 0.00 4.5 34.9 0
Rotan 5W 11:59 PM 40 37 22 /16 91 / 15 11.7  (N) 9.5 33.9 mph 9° @ 0421 AM 0.8 or 0.03 0.16 2.5 17.8 0
San Angelo 7NW 11:55 PM 40 37 22 /16 91 / 15 9.5  (N) 6.8 22.4 mph 354° @ 0945 AM 1 or 0.04 0.06 2.8 19.4 0
Seagraves 1SW 11:55 PM 40 37 22 /16 91 / 15 6.6  (NE) 5.7 28.3 mph 28° @ 0220 AM 0.5 or 0.02 0.00 3.4 24.6 0
Segovia 7SSW 11:59 PM 40 37 22 /16 91 / 15 11.2  (SE) 8.4 26.1 mph 6° @ 1053 AM 2 or 0.08 0.01 3.8 25.2 0
Seminole 2NNE 11:55 PM 40 37 22 /16 91 / 15 8.6  (NE) 11.4 32.8 mph 23° @ 0300 AM 0.8 or 0.03 0.02 4.2 30 0
Seymour 3NW 11:55 PM 40 37 22 /16 91 / 15 14.7  (N) 15.2 33.4 mph 4° @ 0640 AM 0.8 or 0.03 0.79 1.7 12.7 0
Sierra Blanca 1SSE 11:59 PM 40 37 22 /16 91 / 15 17.4  (NW) 13.5 30.9 mph 119° @ 0420 PM 4.3 or 0.17 0.00 17.1 114.1 0
Silverton 7ESE 11:55 PM 40 37 22 /16 91 / 15 4.8  (N) 1.4 14.5 mph 22° @ 1210 AM 0.5 or 0.02 0.00 3.7 27.7 0
Slaton 2NE 11:59 PM 40 37 22 /16 91 / 15 10  (N) 9.8 34 mph 11° @ 0148 AM 0.5 or 0.02 0.00 3.2 23.3 0
Smyer 11:59 PM 40 37 22 /16 91 / 15 8.3  (NE) 9.8 28.7 mph 32° @ 1224 AM 0.5 or 0.02 0.00 3.3 23.8 0
Snyder 3E 11:55 PM 40 37 22 /16 91 / 15 9.9  (N) 7.2 37.6 mph 13° @ 0425 AM 0.8 or 0.03 0.55 2.7 19.1 0
Snyder 3SSW 11:59 PM 40 37 22 /16 91 / 15 10.1  (NE) 8.2 34.9 mph 18° @ 0314 AM 0.5 or 0.02 0.54 2.8 20.1 0
South Plains 3ENE 11:59 PM 40 37 22 /16 91 / 15 5.6  (NE) 4.3 17.7 mph 28° @ 0115 AM 0.5 or 0.02 0.00 3.1 23.1 0
Spur 1W 11:55 PM 40 37 22 /16 91 / 15 14.4  (NE) 12.2 31.5 mph 23° @ 1225 AM 0.8 or 0.03 0.11 2.9 21.2 0
St. Lawrence 5SW 11:55 PM 40 37 22 /16 91 / 15 16.9  (NE) 15.1 36.8 mph 23° @ 0415 AM 1 or 0.04 0.00 3.7 25.1 0
Stamford 5ESE 11:59 PM 40 37 22 /16 91 / 15 15.5  (N) 12.2 32.4 mph 355° @ 0710 AM 0.8 or 0.03 0.14 2.1 15.4 0
Sterling City 4WSW 11:59 PM 40 37 22 /16 91 / 15 10.7  (NE) 8.3 27.7 mph 14° @ 0109 AM 0.8 or 0.03 0.03 2.3 16 0
Stinnett 1NNW 11:59 PM 40 37 22 /16 91 / 15 12.4  (NE) 14.5 21.2 mph 21° @ 0426 AM 0.5 or 0.02 0.00 3.5 27.3 0
Stratford 4WNW 11:59 PM 40 37 22 /16 91 / 15 7.1  (NE) 4.7 11.7 mph 19° @ 0418 AM 0.5 or 0.02 0.00 7 56.4 0
Sundown 8WSW 11:55 PM 40 37 22 /16 91 / 15 9.4  (NE) 10.2 28.1 mph 20° @ 0135 AM 0.5 or 0.02 0.00 2.7 19.4 0
Sweetwater 11SW 11:59 PM 40 37 22 /16 91 / 15 11.6  (NE) 11.5 40.3 mph 30° @ 0255 AM 0.8 or 0.03 0.05 3 21.1 0
Tahoka 3NNE 11:59 PM 40 37 22 /16 91 / 15 9.4  (NE) 9.5 33.1 mph 30° @ 1206 AM 0.5 or 0.02 0.08 3 21.7 0
Tarzan 2WNW 11:59 PM 40 37 22 /16 91 / 15 11.8  (NE) 10.6 31 mph 31° @ 1227 AM 0.5 or 0.02 0.07 3.3 23.4 0
Tatum NM 2SW 09:40 PM 40 37 22 /16 91 / 15 7.8  (NE) 10.8 30.9 mph 36° @ 0110 AM 0.5 or 0.02 0.00 3.8 27.1 0
Throckmorton 1SW 11:59 PM 40 37 22 /16 91 / 15 11  (NE) 7.2 25.6 mph 355° @ 0731 AM 0.8 or 0.03 0.17 2.2 16.2 0
Truscott 2SE 11:59 PM 40 37 22 /16 91 / 15 9.4  (N) 7.6 30.7 mph 11° @ 0438 AM 0.5 or 0.02 0.20 2.1 15.3 0
Tulia 2ENE 11:55 PM 40 37 22 /16 91 / 15 7.5  (N) 9.2 24.6 mph 23° @ 1245 AM 0.5 or 0.02 0.00 3.2 24 0
Turkey 2WSW 11:55 PM 40 37 22 /16 91 / 15 4.7  (N) 7.8 28.7 mph 357° @ 1245 AM 0.5 or 0.02 0.00 2.8 21 0
Umbarger 3NNE 11:59 PM 40 37 22 /16 91 / 15 8.3  (NE) 11.6 20 mph 23° @ 1223 AM 0.5 or 0.02 0.00 4.4 33.6 0
Van Horn 3ENE 11:59 PM 40 37 22 /16 91 / 15 17.9  (N) 13 31.6 mph 19° @ 0128 AM 3 or 0.12 0.00 10 66.8 0
Vega 4E 11:59 PM 40 37 22 /16 91 / 15 4.3  (NE) 1.7 7.7 mph 21° @ 1028 PM 0.5 or 0.02 0.00 3.3 25.7 0
Vigo Park 11:59 PM 40 37 22 /16 91 / 15 5.6  (NE) 2.8 16.4 mph 10° @ 1229 AM 0.5 or 0.02 0.00 2.9 22.2 0
Wall 2E 11:59 PM 40 37 22 /16 91 / 15 15.4  (N) 10 26.7 mph 23° @ 0324 AM 1.3 or 0.05 0.07 2.8 19.5 0
Weinert 2NNE 11:59 PM 40 37 22 /16 91 / 15 12.2  (N) 13.6 34.3 mph 13° @ 0427 AM 0.8 or 0.03 0.53 2 14.8 0
Welch 11:59 PM 40 37 22 /16 91 / 15 7.9  (NE) 10.3 29.8 mph 36° @ 0129 AM 0.5 or 0.02 0.00 3.2 22.6 0
White River Lake 6NW 11:59 PM 40 37 22 /16 91 / 15 14.7  (N) 12 39.5 mph 5° @ 0221 AM 0.8 or 0.03 0.07 3.7 27.2 0
Wolfforth 6SSW 11:59 PM 40 37 22 /16 91 / 15 7.5  (NE) 9.2 31.8 mph 31° @ 1219 AM 0.5 or 0.02 0.00 3.4 24.6 0

WestTexas Mesonet Home    Site Map/Menu  National Weather Service Lubbock   Soil Data   Latest Observation Page   Previous  Date